Ayden, NC

9:51 AM EDT on April 26, 2015 (GMT -0400)
Sunrise Park | | Change Station
CLOSE
Current Station
Personal Weather Station
Location: Ayden, NC
Elevation: 49 ft
Nearby Weather Stations
Active Advisory: Flood Warning

Elev 49 ft 35.47 °N, 77.41 °W | Updated 14 minutes ago

Rain
Rain
49.5 °F
Feels Like 50 °F
N
0.0
Wind Variable Wind from East

Today
High -- | Low -- °F
--% Chance of Precip.
Yesterday
High -- | Low -- °F
Precip. -- in
6:23 AM 7:51 PM
First Quarter, 55% visible
Pressure 29.69 in
Visibility 5.0 miles
Clouds Overcast 700 ft
Windchill 50 °F
Dew Point 49 °F
Humidity 99%
Rainfall 0.07 in
Snow Depth Not available.
UV 1 out of 12
Pollen 7.20 out of 12
Air Quality Not available.
Flu Activity Sporadic
METAR KPGV 261335Z AUTO 04005KT 5SM BR OVC007 10/09 A2969 RMK AO2

More Conditions Fewer Conditions

Pressure 29.69 in
Visibility 5.0 miles
Clouds Overcast 700 ft
Windchill 50 °F
Dew Point 49 °F
Humidity 99%
Rainfall 0.07 in
Snow Depth Not available.
UV 1 out of 12
Pollen 7.20 out of 12
Air Quality Not available.
Flu Activity Sporadic
METAR KPGV 261335Z AUTO 04005KT 5SM BR OVC007 10/09 A2969 RMK AO2

More Conditions Fewer Conditions

The full scope of the disaster following a powerful 7.8-magnitude earthquake in Nepal may not come into view for days, but global charities are already sending emergency aid. Click to see how you can help.

10-Day Weather Forecast

Almanac

Astronomy

Apr. 26, 2015 Rise Set
Actual Time
Civil Twilight
Nautical Twilight
Astronomical Twilight
Moon
Length of Visible Light
Length of Day
Tomorrow will be .
, % of the Moon is Illuminated

Today's Extremes

State Highs State Lows

Community

WunderPhotos

Upload Photos

1,816,998 photos uploaded!

WunderBlogs® & News

Nearby

Air Quality

  Air Quality AQ Index Pollutant
Not available.

Snow Depth

Station Depth Elevation

Earthquake Activity

City Distance Mag. Time & Date
Minimum magnitude displayed is 2.5.

Coastal Water Temperatures

Place Temperature

Stations

Nearby Weather Stations

Station Location Temp. Windchill Dew Point Humidity Wind Precip. Elev Updated Type
                   
Flood Warning
Statement as of 9:34 AM EDT on April 26, 2015

The Flood Warning extended for
the Contentnea Creek near Hookerton.
* Until late Monday night... or until the warning is cancelled.
* At 9 am Sunday the stage was 13.5 feet.
* Minor flooding is occurring and minor flooding is forecast.
* Flood stage is 13.0 feet.
* Forecast... the river will continue to fall to below flood stage by
tomorrow evening.
* Impact... at 13.0 feet... flood stage. Minor flooding of low lying
areas adjacent to creek can be expected.

                  Fld observed forecast 8am
location stg stg day time Mon Tue Wed
Hookerton 13 13.5 sun 09 am 13.1 12.7 12.4

Lat... Lon 3549 7768 3542 7744 3535 7741 3535 7747
          3539 7756 3544 7771